sensor_id;sensor_type;location;lat;lon;timestamp;P1;durP1;ratioP1;P2;durP2;ratioP2
76193;SDS011;64963;52.212;7.482;2022-12-31T00:01:39;9.30;;;5.70;;
76193;SDS011;64963;52.212;7.482;2022-12-31T00:04:04;8.30;;;5.40;;
76193;SDS011;64963;52.212;7.482;2022-12-31T00:06:33;11.17;;;5.83;;
76193;SDS011;64963;52.212;7.482;2022-12-31T00:08:59;12.30;;;6.40;;
76193;SDS011;64963;52.212;7.482;2022-12-31T00:11:25;12.40;;;6.60;;
76193;SDS011;64963;52.212;7.482;2022-12-31T00:13:51;10.03;;;6.60;;
76193;SDS011;64963;52.212;7.482;2022-12-31T00:16:18;13.57;;;7.22;;
76193;SDS011;64963;52.212;7.482;2022-12-31T00:18:45;11.00;;;7.50;;
76193;SDS011;64963;52.212;7.482;2022-12-31T00:21:10;14.47;;;8.07;;
76193;SDS011;64963;52.212;7.482;2022-12-31T00:23:35;13.80;;;7.90;;
76193;SDS011;64963;52.212;7.482;2022-12-31T00:26:02;12.98;;;8.00;;
76193;SDS011;64963;52.212;7.482;2022-12-31T00:28:27;11.73;;;7.28;;
76193;SDS011;64963;52.212;7.482;2022-12-31T00:30:52;11.10;;;7.17;;
76193;SDS011;64963;52.212;7.482;2022-12-31T00:33:17;8.27;;;6.23;;
76193;SDS011;64963;52.212;7.482;2022-12-31T00:35:43;10.70;;;6.90;;
76193;SDS011;64963;52.212;7.482;2022-12-31T00:38:08;9.17;;;6.60;;
76193;SDS011;64963;52.212;7.482;2022-12-31T00:40:33;10.10;;;6.63;;
76193;SDS011;64963;52.212;7.482;2022-12-31T00:42:58;8.57;;;6.30;;
76193;SDS011;64963;52.212;7.482;2022-12-31T00:45:24;8.23;;;6.10;;
76193;SDS011;64963;52.212;7.482;2022-12-31T00:47:49;7.73;;;5.50;;
76193;SDS011;64963;52.212;7.482;2022-12-31T00:50:14;9.10;;;6.17;;
76193;SDS011;64963;52.212;7.482;2022-12-31T00:52:39;9.77;;;5.30;;
76193;SDS011;64963;52.212;7.482;2022-12-31T00:55:04;7.97;;;5.70;;
76193;SDS011;64963;52.212;7.482;2022-12-31T00:57:30;9.20;;;5.72;;
76193;SDS011;64963;52.212;7.482;2022-12-31T00:59:55;10.50;;;6.30;;
76193;SDS011;64963;52.212;7.482;2022-12-31T01:02:20;8.73;;;5.70;;
76193;SDS011;64963;52.212;7.482;2022-12-31T01:04:45;9.07;;;6.17;;
76193;SDS011;64963;52.212;7.482;2022-12-31T01:07:11;9.07;;;6.40;;
76193;SDS011;64963;52.212;7.482;2022-12-31T01:09:36;11.33;;;6.83;;
76193;SDS011;64963;52.212;7.482;2022-12-31T01:12:01;10.55;;;6.90;;
76193;SDS011;64963;52.212;7.482;2022-12-31T01:14:26;10.80;;;6.75;;
76193;SDS011;64963;52.212;7.482;2022-12-31T01:16:52;9.40;;;6.30;;
76193;SDS011;64963;52.212;7.482;2022-12-31T01:19:21;11.00;;;6.73;;
76193;SDS011;64963;52.212;7.482;2022-12-31T01:21:47;8.77;;;6.55;;
76193;SDS011;64963;52.212;7.482;2022-12-31T01:24:12;10.80;;;6.60;;
76193;SDS011;64963;52.212;7.482;2022-12-31T01:26:37;8.90;;;6.43;;
76193;SDS011;64963;52.212;7.482;2022-12-31T01:29:03;9.20;;;6.37;;
76193;SDS011;64963;52.212;7.482;2022-12-31T01:31:29;9.82;;;6.13;;
76193;SDS011;64963;52.212;7.482;2022-12-31T01:33:54;9.57;;;6.27;;
76193;SDS011;64963;52.212;7.482;2022-12-31T01:36:23;11.65;;;7.40;;
76193;SDS011;64963;52.212;7.482;2022-12-31T01:38:49;11.67;;;7.37;;
76193;SDS011;64963;52.212;7.482;2022-12-31T01:41:15;10.50;;;6.93;;
76193;SDS011;64963;52.212;7.482;2022-12-31T01:46:32;10.98;;;7.88;;
76193;SDS011;64963;52.212;7.482;2022-12-31T01:49:00;9.45;;;6.82;;
76193;SDS011;64963;52.212;7.482;2022-12-31T01:51:26;9.32;;;6.50;;
76193;SDS011;64963;52.212;7.482;2022-12-31T01:53:54;13.77;;;7.30;;
76193;SDS011;64963;52.212;7.482;2022-12-31T01:56:19;11.30;;;6.70;;
76193;SDS011;64963;52.212;7.482;2022-12-31T01:58:46;10.13;;;6.43;;
76193;SDS011;64963;52.212;7.482;2022-12-31T02:01:13;11.02;;;6.75;;
76193;SDS011;64963;52.212;7.482;2022-12-31T02:03:39;14.73;;;6.78;;
76193;SDS011;64963;52.212;7.482;2022-12-31T02:06:17;8.27;;;5.40;;
76193;SDS011;64963;52.212;7.482;2022-12-31T02:08:44;7.57;;;4.78;;
76193;SDS011;64963;52.212;7.482;2022-12-31T02:11:23;8.50;;;5.27;;
76193;SDS011;64963;52.212;7.482;2022-12-31T02:13:49;6.82;;;4.45;;
76193;SDS011;64963;52.212;7.482;2022-12-31T02:16:18;6.93;;;4.45;;
76193;SDS011;64963;52.212;7.482;2022-12-31T02:24:07;8.20;;;3.97;;
76193;SDS011;64963;52.212;7.482;2022-12-31T02:31:56;7.60;;;4.10;;
76193;SDS011;64963;52.212;7.482;2022-12-31T02:36:48;3.92;;;2.10;;
76193;SDS011;64963;52.212;7.482;2022-12-31T02:39:14;3.05;;;1.40;;
76193;SDS011;64963;52.212;7.482;2022-12-31T02:41:39;2.30;;;1.33;;
76193;SDS011;64963;52.212;7.482;2022-12-31T02:44:19;4.13;;;1.70;;
76193;SDS011;64963;52.212;7.482;2022-12-31T02:46:48;3.00;;;1.63;;
76193;SDS011;64963;52.212;7.482;2022-12-31T02:49:22;4.57;;;1.70;;
76193;SDS011;64963;52.212;7.482;2022-12-31T02:51:57;3.75;;;1.17;;
76193;SDS011;64963;52.212;7.482;2022-12-31T03:02:14;4.35;;;1.30;;
76193;SDS011;64963;52.212;7.482;2022-12-31T03:04:42;2.50;;;1.40;;
76193;SDS011;64963;52.212;7.482;2022-12-31T03:07:17;2.70;;;1.23;;
76193;SDS011;64963;52.212;7.482;2022-12-31T03:09:42;2.55;;;1.40;;
76193;SDS011;64963;52.212;7.482;2022-12-31T03:12:08;2.50;;;1.40;;
76193;SDS011;64963;52.212;7.482;2022-12-31T03:14:33;2.47;;;1.23;;
76193;SDS011;64963;52.212;7.482;2022-12-31T03:17:00;3.07;;;1.37;;
76193;SDS011;64963;52.212;7.482;2022-12-31T03:19:25;2.97;;;1.20;;
76193;SDS011;64963;52.212;7.482;2022-12-31T03:21:50;2.67;;;1.20;;
76193;SDS011;64963;52.212;7.482;2022-12-31T03:24:15;3.13;;;1.30;;
76193;SDS011;64963;52.212;7.482;2022-12-31T03:26:41;3.87;;;1.30;;
76193;SDS011;64963;52.212;7.482;2022-12-31T03:29:06;4.40;;;1.50;;
76193;SDS011;64963;52.212;7.482;2022-12-31T03:31:31;5.40;;;1.70;;
76193;SDS011;64963;52.212;7.482;2022-12-31T03:33:56;4.97;;;1.50;;
76193;SDS011;64963;52.212;7.482;2022-12-31T03:36:21;4.00;;;1.60;;
76193;SDS011;64963;52.212;7.482;2022-12-31T03:38:47;4.83;;;1.70;;
76193;SDS011;64963;52.212;7.482;2022-12-31T03:41:12;3.20;;;1.57;;
76193;SDS011;64963;52.212;7.482;2022-12-31T03:43:37;4.37;;;1.57;;
76193;SDS011;64963;52.212;7.482;2022-12-31T03:46:02;3.33;;;1.43;;
76193;SDS011;64963;52.212;7.482;2022-12-31T03:48:28;4.47;;;1.67;;
76193;SDS011;64963;52.212;7.482;2022-12-31T03:50:53;3.13;;;1.60;;
76193;SDS011;64963;52.212;7.482;2022-12-31T03:53:18;4.70;;;2.03;;
76193;SDS011;64963;52.212;7.482;2022-12-31T03:55:43;3.08;;;1.50;;
76193;SDS011;64963;52.212;7.482;2022-12-31T03:58:08;3.20;;;1.53;;
76193;SDS011;64963;52.212;7.482;2022-12-31T04:00:34;5.40;;;2.20;;
76193;SDS011;64963;52.212;7.482;2022-12-31T04:02:59;5.43;;;1.90;;
76193;SDS011;64963;52.212;7.482;2022-12-31T04:05:24;5.30;;;1.90;;
76193;SDS011;64963;52.212;7.482;2022-12-31T04:07:49;4.00;;;1.80;;
76193;SDS011;64963;52.212;7.482;2022-12-31T04:10:15;4.90;;;1.90;;
76193;SDS011;64963;52.212;7.482;2022-12-31T04:12:41;4.87;;;2.40;;
76193;SDS011;64963;52.212;7.482;2022-12-31T04:15:07;4.68;;;2.05;;
76193;SDS011;64963;52.212;7.482;2022-12-31T04:17:32;6.27;;;2.40;;
76193;SDS011;64963;52.212;7.482;2022-12-31T04:19:57;4.80;;;2.30;;
76193;SDS011;64963;52.212;7.482;2022-12-31T04:22:22;7.10;;;3.10;;
76193;SDS011;64963;52.212;7.482;2022-12-31T04:24:48;7.43;;;3.07;;
76193;SDS011;64963;52.212;7.482;2022-12-31T04:27:13;8.60;;;3.43;;
76193;SDS011;64963;52.212;7.482;2022-12-31T04:29:39;5.60;;;2.80;;
76193;SDS011;64963;52.212;7.482;2022-12-31T04:32:05;7.82;;;3.00;;
76193;SDS011;64963;52.212;7.482;2022-12-31T04:34:31;9.13;;;3.60;;
76193;SDS011;64963;52.212;7.482;2022-12-31T04:36:56;8.48;;;3.30;;
76193;SDS011;64963;52.212;7.482;2022-12-31T04:39:21;11.20;;;3.45;;
76193;SDS011;64963;52.212;7.482;2022-12-31T04:41:46;9.63;;;3.77;;
76193;SDS011;64963;52.212;7.482;2022-12-31T04:44:12;8.27;;;3.20;;
76193;SDS011;64963;52.212;7.482;2022-12-31T04:46:37;9.17;;;3.97;;
76193;SDS011;64963;52.212;7.482;2022-12-31T04:49:02;10.50;;;3.13;;
76193;SDS011;64963;52.212;7.482;2022-12-31T04:51:29;6.83;;;2.77;;
76193;SDS011;64963;52.212;7.482;2022-12-31T04:53:55;8.83;;;3.00;;
76193;SDS011;64963;52.212;7.482;2022-12-31T04:56:20;14.50;;;2.97;;
76193;SDS011;64963;52.212;7.482;2022-12-31T04:58:46;7.07;;;3.00;;
76193;SDS011;64963;52.212;7.482;2022-12-31T05:01:11;9.47;;;2.90;;
76193;SDS011;64963;52.212;7.482;2022-12-31T05:03:36;7.20;;;2.47;;
76193;SDS011;64963;52.212;7.482;2022-12-31T05:06:02;8.93;;;3.20;;
76193;SDS011;64963;52.212;7.482;2022-12-31T05:08:28;5.63;;;2.50;;
76193;SDS011;64963;52.212;7.482;2022-12-31T05:10:53;6.73;;;2.50;;
76193;SDS011;64963;52.212;7.482;2022-12-31T05:13:19;5.83;;;2.10;;
76193;SDS011;64963;52.212;7.482;2022-12-31T05:15:45;5.05;;;2.20;;
76193;SDS011;64963;52.212;7.482;2022-12-31T05:18:10;4.67;;;2.30;;
76193;SDS011;64963;52.212;7.482;2022-12-31T05:20:36;4.68;;;1.90;;
76193;SDS011;64963;52.212;7.482;2022-12-31T05:23:02;5.67;;;2.37;;
76193;SDS011;64963;52.212;7.482;2022-12-31T05:25:27;4.60;;;2.00;;
76193;SDS011;64963;52.212;7.482;2022-12-31T05:27:53;5.75;;;2.10;;
76193;SDS011;64963;52.212;7.482;2022-12-31T05:30:18;5.35;;;1.92;;
76193;SDS011;64963;52.212;7.482;2022-12-31T05:32:44;6.00;;;2.17;;
76193;SDS011;64963;52.212;7.482;2022-12-31T05:35:09;4.73;;;1.60;;
76193;SDS011;64963;52.212;7.482;2022-12-31T05:37:34;3.90;;;1.80;;
76193;SDS011;64963;52.212;7.482;2022-12-31T05:39:59;4.13;;;1.80;;
76193;SDS011;64963;52.212;7.482;2022-12-31T05:42:25;4.00;;;1.35;;
76193;SDS011;64963;52.212;7.482;2022-12-31T05:44:50;3.10;;;1.30;;
76193;SDS011;64963;52.212;7.482;2022-12-31T05:47:15;5.33;;;2.00;;
76193;SDS011;64963;52.212;7.482;2022-12-31T05:49:41;5.93;;;1.90;;
76193;SDS011;64963;52.212;7.482;2022-12-31T05:52:07;4.40;;;1.97;;
76193;SDS011;64963;52.212;7.482;2022-12-31T05:54:32;8.63;;;2.20;;
76193;SDS011;64963;52.212;7.482;2022-12-31T05:56:57;5.00;;;2.00;;
76193;SDS011;64963;52.212;7.482;2022-12-31T05:59:22;3.50;;;1.70;;
76193;SDS011;64963;52.212;7.482;2022-12-31T06:01:49;4.83;;;2.00;;
76193;SDS011;64963;52.212;7.482;2022-12-31T06:04:14;5.60;;;2.05;;
76193;SDS011;64963;52.212;7.482;2022-12-31T06:06:39;4.43;;;1.67;;
76193;SDS011;64963;52.212;7.482;2022-12-31T06:09:05;5.73;;;1.90;;
76193;SDS011;64963;52.212;7.482;2022-12-31T06:11:30;4.80;;;1.90;;
76193;SDS011;64963;52.212;7.482;2022-12-31T06:13:55;4.27;;;1.90;;
76193;SDS011;64963;52.212;7.482;2022-12-31T06:16:20;5.87;;;1.80;;
76193;SDS011;64963;52.212;7.482;2022-12-31T06:18:46;6.70;;;2.30;;
76193;SDS011;64963;52.212;7.482;2022-12-31T06:21:11;11.23;;;4.17;;
76193;SDS011;64963;52.212;7.482;2022-12-31T06:23:36;11.07;;;4.20;;
76193;SDS011;64963;52.212;7.482;2022-12-31T06:26:04;16.75;;;6.78;;
76193;SDS011;64963;52.212;7.482;2022-12-31T06:28:29;12.00;;;6.07;;
76193;SDS011;64963;52.212;7.482;2022-12-31T06:30:58;22.53;;;7.10;;
76193;SDS011;64963;52.212;7.482;2022-12-31T06:33:23;11.30;;;4.10;;
76193;SDS011;64963;52.212;7.482;2022-12-31T06:35:48;11.83;;;4.00;;
76193;SDS011;64963;52.212;7.482;2022-12-31T06:38:18;7.20;;;3.08;;
76193;SDS011;64963;52.212;7.482;2022-12-31T06:40:43;7.17;;;3.03;;
76193;SDS011;64963;52.212;7.482;2022-12-31T06:43:09;8.63;;;3.40;;
76193;SDS011;64963;52.212;7.482;2022-12-31T06:45:34;9.73;;;3.43;;
76193;SDS011;64963;52.212;7.482;2022-12-31T06:47:59;8.77;;;3.60;;
76193;SDS011;64963;52.212;7.482;2022-12-31T06:50:24;6.87;;;3.03;;
76193;SDS011;64963;52.212;7.482;2022-12-31T06:52:49;9.20;;;3.30;;
76193;SDS011;64963;52.212;7.482;2022-12-31T06:55:14;6.30;;;2.40;;
76193;SDS011;64963;52.212;7.482;2022-12-31T06:57:40;6.67;;;2.30;;
76193;SDS011;64963;52.212;7.482;2022-12-31T07:00:05;7.03;;;2.37;;
76193;SDS011;64963;52.212;7.482;2022-12-31T07:15:09;5.05;;;1.80;;
76193;SDS011;64963;52.212;7.482;2022-12-31T07:17:42;5.18;;;2.20;;
76193;SDS011;64963;52.212;7.482;2022-12-31T07:22:35;8.37;;;2.90;;
76193;SDS011;64963;52.212;7.482;2022-12-31T07:25:00;6.95;;;2.85;;
76193;SDS011;64963;52.212;7.482;2022-12-31T07:27:39;5.40;;;2.33;;
76193;SDS011;64963;52.212;7.482;2022-12-31T07:35:24;4.37;;;1.80;;
76193;SDS011;64963;52.212;7.482;2022-12-31T07:40:31;3.13;;;1.35;;
76193;SDS011;64963;52.212;7.482;2022-12-31T07:43:12;3.05;;;1.33;;
76193;SDS011;64963;52.212;7.482;2022-12-31T07:48:06;3.47;;;1.63;;
76193;SDS011;64963;52.212;7.482;2022-12-31T07:50:37;3.40;;;1.70;;
76193;SDS011;64963;52.212;7.482;2022-12-31T07:53:03;4.60;;;1.90;;
76193;SDS011;64963;52.212;7.482;2022-12-31T07:55:29;4.60;;;2.00;;
76193;SDS011;64963;52.212;7.482;2022-12-31T07:57:56;4.77;;;2.13;;
76193;SDS011;64963;52.212;7.482;2022-12-31T08:00:22;4.32;;;2.35;;
76193;SDS011;64963;52.212;7.482;2022-12-31T08:05:17;4.82;;;2.10;;
76193;SDS011;64963;52.212;7.482;2022-12-31T08:10:23;4.65;;;1.80;;
76193;SDS011;64963;52.212;7.482;2022-12-31T08:12:50;5.65;;;2.17;;
76193;SDS011;64963;52.212;7.482;2022-12-31T08:15:17;4.80;;;1.80;;
76193;SDS011;64963;52.212;7.482;2022-12-31T08:17:43;4.45;;;2.13;;
76193;SDS011;64963;52.212;7.482;2022-12-31T08:20:14;3.40;;;1.80;;
76193;SDS011;64963;52.212;7.482;2022-12-31T08:25:39;4.43;;;2.03;;
76193;SDS011;64963;52.212;7.482;2022-12-31T08:41:42;5.40;;;1.85;;
76193;SDS011;64963;52.212;7.482;2022-12-31T08:46:56;4.88;;;1.67;;
76193;SDS011;64963;52.212;7.482;2022-12-31T08:49:30;5.25;;;1.95;;
76193;SDS011;64963;52.212;7.482;2022-12-31T08:51:56;4.00;;;1.67;;
76193;SDS011;64963;52.212;7.482;2022-12-31T08:54:21;4.00;;;1.55;;
76193;SDS011;64963;52.212;7.482;2022-12-31T08:57:04;6.73;;;1.70;;
76193;SDS011;64963;52.212;7.482;2022-12-31T09:04:45;6.60;;;1.70;;
76193;SDS011;64963;52.212;7.482;2022-12-31T09:07:15;4.18;;;2.08;;
76193;SDS011;64963;52.212;7.482;2022-12-31T09:12:13;5.22;;;2.00;;
76193;SDS011;64963;52.212;7.482;2022-12-31T09:14:46;6.38;;;1.85;;
76193;SDS011;64963;52.212;7.482;2022-12-31T09:19:36;6.18;;;1.92;;
76193;SDS011;64963;52.212;7.482;2022-12-31T09:22:02;6.07;;;1.97;;
76193;SDS011;64963;52.212;7.482;2022-12-31T09:24:27;7.03;;;2.33;;
76193;SDS011;64963;52.212;7.482;2022-12-31T09:29:56;7.35;;;2.20;;
76193;SDS011;64963;52.212;7.482;2022-12-31T09:35:00;11.48;;;4.13;;
76193;SDS011;64963;52.212;7.482;2022-12-31T09:37:35;6.97;;;2.07;;
76193;SDS011;64963;52.212;7.482;2022-12-31T09:40:09;3.38;;;1.48;;
76193;SDS011;64963;52.212;7.482;2022-12-31T09:52:57;2.00;;;0.60;;
76193;SDS011;64963;52.212;7.482;2022-12-31T09:55:35;1.97;;;0.43;;
76193;SDS011;64963;52.212;7.482;2022-12-31T09:58:14;4.05;;;0.70;;
76193;SDS011;64963;52.212;7.482;2022-12-31T10:00:52;2.65;;;0.68;;
76193;SDS011;64963;52.212;7.482;2022-12-31T10:03:31;1.88;;;0.60;;
76193;SDS011;64963;52.212;7.482;2022-12-31T10:06:20;2.42;;;0.68;;
76193;SDS011;64963;52.212;7.482;2022-12-31T10:16:43;3.05;;;0.70;;
76193;SDS011;64963;52.212;7.482;2022-12-31T10:21:51;2.70;;;0.90;;
76193;SDS011;64963;52.212;7.482;2022-12-31T10:24:38;3.23;;;1.00;;
76193;SDS011;64963;52.212;7.482;2022-12-31T10:32:34;2.92;;;1.00;;
76193;SDS011;64963;52.212;7.482;2022-12-31T10:35:22;2.17;;;0.88;;
76193;SDS011;64963;52.212;7.482;2022-12-31T10:37:53;2.53;;;0.93;;
76193;SDS011;64963;52.212;7.482;2022-12-31T10:46:14;4.55;;;1.20;;
76193;SDS011;64963;52.212;7.482;2022-12-31T10:51:33;3.10;;;1.53;;
76193;SDS011;64963;52.212;7.482;2022-12-31T10:59:17;5.10;;;1.70;;
76193;SDS011;64963;52.212;7.482;2022-12-31T11:02:11;4.85;;;2.05;;
76193;SDS011;64963;52.212;7.482;2022-12-31T11:04:55;3.97;;;1.70;;
76193;SDS011;64963;52.212;7.482;2022-12-31T11:07:34;4.93;;;1.60;;
76193;SDS011;64963;52.212;7.482;2022-12-31T11:17:49;4.35;;;1.60;;
76193;SDS011;64963;52.212;7.482;2022-12-31T11:22:49;3.90;;;1.43;;
76193;SDS011;64963;52.212;7.482;2022-12-31T11:25:21;4.80;;;1.40;;
76193;SDS011;64963;52.212;7.482;2022-12-31T11:45:55;4.57;;;1.70;;
76193;SDS011;64963;52.212;7.482;2022-12-31T11:51:21;4.10;;;1.40;;
76193;SDS011;64963;52.212;7.482;2022-12-31T11:54:02;5.68;;;1.73;;
76193;SDS011;64963;52.212;7.482;2022-12-31T11:56:34;4.20;;;1.40;;
76193;SDS011;64963;52.212;7.482;2022-12-31T11:59:03;4.88;;;1.55;;
76193;SDS011;64963;52.212;7.482;2022-12-31T12:01:32;5.20;;;1.33;;
76193;SDS011;64963;52.212;7.482;2022-12-31T12:04:00;5.63;;;1.42;;
76193;SDS011;64963;52.212;7.482;2022-12-31T12:06:27;4.57;;;1.30;;
76193;SDS011;64963;52.212;7.482;2022-12-31T12:08:54;5.37;;;1.60;;
76193;SDS011;64963;52.212;7.482;2022-12-31T12:11:23;4.10;;;1.40;;
76193;SDS011;64963;52.212;7.482;2022-12-31T12:13:49;6.25;;;1.85;;
76193;SDS011;64963;52.212;7.482;2022-12-31T12:16:14;6.63;;;1.80;;
76193;SDS011;64963;52.212;7.482;2022-12-31T12:18:44;3.93;;;1.53;;
76193;SDS011;64963;52.212;7.482;2022-12-31T12:21:10;9.05;;;1.73;;
76193;SDS011;64963;52.212;7.482;2022-12-31T12:23:36;6.60;;;2.90;;
76193;SDS011;64963;52.212;7.482;2022-12-31T12:26:03;6.87;;;1.90;;
76193;SDS011;64963;52.212;7.482;2022-12-31T12:28:30;5.00;;;1.67;;
76193;SDS011;64963;52.212;7.482;2022-12-31T12:31:04;4.47;;;1.50;;
76193;SDS011;64963;52.212;7.482;2022-12-31T12:33:30;4.97;;;2.07;;
76193;SDS011;64963;52.212;7.482;2022-12-31T12:36:05;7.03;;;1.63;;
76193;SDS011;64963;52.212;7.482;2022-12-31T12:38:30;5.43;;;2.00;;
76193;SDS011;64963;52.212;7.482;2022-12-31T12:40:57;7.63;;;1.80;;
76193;SDS011;64963;52.212;7.482;2022-12-31T12:43:24;4.57;;;1.42;;
76193;SDS011;64963;52.212;7.482;2022-12-31T12:45:49;6.20;;;1.60;;
76193;SDS011;64963;52.212;7.482;2022-12-31T12:48:20;6.55;;;1.50;;
76193;SDS011;64963;52.212;7.482;2022-12-31T12:50:49;5.15;;;1.77;;
76193;SDS011;64963;52.212;7.482;2022-12-31T12:56:23;5.93;;;1.88;;
76193;SDS011;64963;52.212;7.482;2022-12-31T12:58:32;7.80;;;1.53;;
76193;SDS011;64963;52.212;7.482;2022-12-31T13:01:01;4.28;;;1.40;;
76193;SDS011;64963;52.212;7.482;2022-12-31T13:11:31;5.00;;;1.20;;
76193;SDS011;64963;52.212;7.482;2022-12-31T13:16:33;5.43;;;1.33;;
76193;SDS011;64963;52.212;7.482;2022-12-31T13:29:23;6.63;;;1.70;;
76193;SDS011;64963;52.212;7.482;2022-12-31T13:31:48;4.78;;;1.50;;
76193;SDS011;64963;52.212;7.482;2022-12-31T13:34:16;5.47;;;1.80;;
76193;SDS011;64963;52.212;7.482;2022-12-31T13:36:43;9.90;;;1.70;;
76193;SDS011;64963;52.212;7.482;2022-12-31T13:39:13;7.77;;;2.27;;
76193;SDS011;64963;52.212;7.482;2022-12-31T13:42:13;4.85;;;1.52;;
76193;SDS011;64963;52.212;7.482;2022-12-31T13:47:09;6.10;;;1.60;;
76193;SDS011;64963;52.212;7.482;2022-12-31T13:49:36;6.85;;;1.65;;
76193;SDS011;64963;52.212;7.482;2022-12-31T13:52:17;6.00;;;1.80;;
76193;SDS011;64963;52.212;7.482;2022-12-31T13:57:39;8.15;;;1.80;;
76193;SDS011;64963;52.212;7.482;2022-12-31T14:00:13;6.70;;;1.80;;
76193;SDS011;64963;52.212;7.482;2022-12-31T14:05:37;7.17;;;1.83;;
76193;SDS011;64963;52.212;7.482;2022-12-31T14:08:05;4.85;;;1.60;;
76193;SDS011;64963;52.212;7.482;2022-12-31T14:15:49;4.75;;;1.48;;
76193;SDS011;64963;52.212;7.482;2022-12-31T14:18:22;5.75;;;1.63;;
76193;SDS011;64963;52.212;7.482;2022-12-31T14:20:53;6.00;;;2.00;;
76193;SDS011;64963;52.212;7.482;2022-12-31T14:28:36;4.78;;;1.40;;
76193;SDS011;64963;52.212;7.482;2022-12-31T14:31:04;6.25;;;1.50;;
76193;SDS011;64963;52.212;7.482;2022-12-31T14:36:30;5.82;;;1.85;;
76193;SDS011;64963;52.212;7.482;2022-12-31T14:44:27;5.97;;;1.67;;
76193;SDS011;64963;52.212;7.482;2022-12-31T14:49:37;6.03;;;1.85;;
76193;SDS011;64963;52.212;7.482;2022-12-31T14:52:23;5.00;;;1.70;;
76193;SDS011;64963;52.212;7.482;2022-12-31T14:54:58;5.03;;;1.60;;
76193;SDS011;64963;52.212;7.482;2022-12-31T14:57:24;4.65;;;1.75;;
76193;SDS011;64963;52.212;7.482;2022-12-31T14:59:54;4.13;;;1.73;;
76193;SDS011;64963;52.212;7.482;2022-12-31T15:05:01;8.93;;;1.95;;
76193;SDS011;64963;52.212;7.482;2022-12-31T15:07:36;5.87;;;1.80;;
76193;SDS011;64963;52.212;7.482;2022-12-31T15:12:42;8.65;;;3.67;;
76193;SDS011;64963;52.212;7.482;2022-12-31T15:15:25;5.10;;;1.80;;
76193;SDS011;64963;52.212;7.482;2022-12-31T15:20:52;6.93;;;1.97;;
76193;SDS011;64963;52.212;7.482;2022-12-31T15:23:21;4.70;;;1.38;;
76193;SDS011;64963;52.212;7.482;2022-12-31T15:25:48;4.53;;;1.70;;
76193;SDS011;64963;52.212;7.482;2022-12-31T15:28:28;4.78;;;1.92;;
76193;SDS011;64963;52.212;7.482;2022-12-31T15:30:55;4.20;;;1.30;;
76193;SDS011;64963;52.212;7.482;2022-12-31T15:35:51;6.72;;;1.90;;
76193;SDS011;64963;52.212;7.482;2022-12-31T15:38:28;4.60;;;1.83;;
76193;SDS011;64963;52.212;7.482;2022-12-31T15:40:54;7.82;;;1.70;;
76193;SDS011;64963;52.212;7.482;2022-12-31T15:45:44;8.17;;;2.23;;
76193;SDS011;64963;52.212;7.482;2022-12-31T15:48:14;5.25;;;1.40;;
76193;SDS011;64963;52.212;7.482;2022-12-31T15:50:40;5.80;;;1.70;;
76193;SDS011;64963;52.212;7.482;2022-12-31T15:53:07;5.78;;;1.83;;
76193;SDS011;64963;52.212;7.482;2022-12-31T15:55:43;5.20;;;1.30;;
76193;SDS011;64963;52.212;7.482;2022-12-31T15:58:18;10.82;;;1.70;;
76193;SDS011;64963;52.212;7.482;2022-12-31T16:00:53;7.55;;;2.03;;
76193;SDS011;64963;52.212;7.482;2022-12-31T16:03:22;8.02;;;2.03;;
76193;SDS011;64963;52.212;7.482;2022-12-31T16:05:47;6.97;;;1.90;;
76193;SDS011;64963;52.212;7.482;2022-12-31T16:08:20;8.60;;;2.40;;
76193;SDS011;64963;52.212;7.482;2022-12-31T16:10:46;9.77;;;2.55;;
76193;SDS011;64963;52.212;7.482;2022-12-31T16:13:17;6.50;;;2.40;;
76193;SDS011;64963;52.212;7.482;2022-12-31T16:15:43;10.90;;;2.40;;
76193;SDS011;64963;52.212;7.482;2022-12-31T16:18:12;15.00;;;4.88;;
76193;SDS011;64963;52.212;7.482;2022-12-31T16:20:41;10.10;;;2.10;;
76193;SDS011;64963;52.212;7.482;2022-12-31T16:23:26;5.40;;;1.92;;
76193;SDS011;64963;52.212;7.482;2022-12-31T16:25:52;11.98;;;2.53;;
76193;SDS011;64963;52.212;7.482;2022-12-31T16:28:19;11.75;;;2.58;;
76193;SDS011;64963;52.212;7.482;2022-12-31T16:30:44;7.50;;;2.00;;
76193;SDS011;64963;52.212;7.482;2022-12-31T16:33:11;8.25;;;2.20;;
76193;SDS011;64963;52.212;7.482;2022-12-31T16:35:38;6.88;;;2.00;;
76193;SDS011;64963;52.212;7.482;2022-12-31T16:38:13;6.10;;;2.10;;
76193;SDS011;64963;52.212;7.482;2022-12-31T16:40:39;7.53;;;2.28;;
76193;SDS011;64963;52.212;7.482;2022-12-31T16:43:13;9.47;;;2.40;;
76193;SDS011;64963;52.212;7.482;2022-12-31T16:45:45;6.38;;;2.20;;
76193;SDS011;64963;52.212;7.482;2022-12-31T16:48:16;5.77;;;1.93;;
76193;SDS011;64963;52.212;7.482;2022-12-31T16:50:49;7.57;;;2.03;;
76193;SDS011;64963;52.212;7.482;2022-12-31T16:53:17;10.32;;;2.33;;
76193;SDS011;64963;52.212;7.482;2022-12-31T16:55:43;9.35;;;2.13;;
76193;SDS011;64963;52.212;7.482;2022-12-31T16:58:17;5.80;;;2.23;;
76193;SDS011;64963;52.212;7.482;2022-12-31T17:00:43;5.22;;;1.90;;
76193;SDS011;64963;52.212;7.482;2022-12-31T17:03:12;5.20;;;2.03;;
76193;SDS011;64963;52.212;7.482;2022-12-31T17:11:18;7.82;;;2.30;;
76193;SDS011;64963;52.212;7.482;2022-12-31T17:13:51;5.57;;;2.00;;
76193;SDS011;64963;52.212;7.482;2022-12-31T17:16:16;6.07;;;2.20;;
76193;SDS011;64963;52.212;7.482;2022-12-31T17:18:42;7.55;;;2.70;;
76193;SDS011;64963;52.212;7.482;2022-12-31T17:21:08;6.07;;;2.60;;
76193;SDS011;64963;52.212;7.482;2022-12-31T17:23:34;7.90;;;2.45;;
76193;SDS011;64963;52.212;7.482;2022-12-31T17:26:42;6.15;;;2.33;;
76193;SDS011;64963;52.212;7.482;2022-12-31T17:28:49;10.30;;;2.60;;
76193;SDS011;64963;52.212;7.482;2022-12-31T17:33:51;8.20;;;2.20;;
76193;SDS011;64963;52.212;7.482;2022-12-31T17:36:21;6.25;;;2.00;;
76193;SDS011;64963;52.212;7.482;2022-12-31T17:38:47;5.88;;;2.33;;
76193;SDS011;64963;52.212;7.482;2022-12-31T17:41:13;6.03;;;2.33;;
76193;SDS011;64963;52.212;7.482;2022-12-31T17:43:38;8.00;;;2.22;;
76193;SDS011;64963;52.212;7.482;2022-12-31T17:46:07;7.57;;;2.70;;
76193;SDS011;64963;52.212;7.482;2022-12-31T17:48:34;8.32;;;2.45;;
76193;SDS011;64963;52.212;7.482;2022-12-31T17:51:00;7.55;;;2.63;;
76193;SDS011;64963;52.212;7.482;2022-12-31T17:53:26;6.63;;;2.70;;
76193;SDS011;64963;52.212;7.482;2022-12-31T17:55:52;6.40;;;2.67;;
76193;SDS011;64963;52.212;7.482;2022-12-31T17:58:26;8.00;;;2.72;;
76193;SDS011;64963;52.212;7.482;2022-12-31T18:00:51;6.68;;;2.30;;
76193;SDS011;64963;52.212;7.482;2022-12-31T18:03:16;5.50;;;1.93;;
76193;SDS011;64963;52.212;7.482;2022-12-31T18:05:42;7.63;;;2.47;;
76193;SDS011;64963;52.212;7.482;2022-12-31T18:08:07;6.07;;;2.20;;
76193;SDS011;64963;52.212;7.482;2022-12-31T18:10:33;6.13;;;2.13;;
76193;SDS011;64963;52.212;7.482;2022-12-31T18:12:59;5.68;;;2.00;;
76193;SDS011;64963;52.212;7.482;2022-12-31T18:15:24;8.70;;;2.50;;
76193;SDS011;64963;52.212;7.482;2022-12-31T18:17:49;6.43;;;2.40;;
76193;SDS011;64963;52.212;7.482;2022-12-31T18:20:15;5.97;;;2.37;;
76193;SDS011;64963;52.212;7.482;2022-12-31T18:22:41;8.47;;;2.20;;
76193;SDS011;64963;52.212;7.482;2022-12-31T18:25:18;7.22;;;2.50;;
76193;SDS011;64963;52.212;7.482;2022-12-31T18:27:44;5.73;;;2.20;;
76193;SDS011;64963;52.212;7.482;2022-12-31T18:30:09;5.50;;;1.93;;
76193;SDS011;64963;52.212;7.482;2022-12-31T18:32:35;7.57;;;2.22;;
76193;SDS011;64963;52.212;7.482;2022-12-31T18:35:02;5.13;;;1.90;;
76193;SDS011;64963;52.212;7.482;2022-12-31T18:37:27;7.47;;;2.57;;
76193;SDS011;64963;52.212;7.482;2022-12-31T18:39:53;5.13;;;2.03;;
76193;SDS011;64963;52.212;7.482;2022-12-31T18:42:18;4.57;;;2.13;;
76193;SDS011;64963;52.212;7.482;2022-12-31T18:44:44;5.47;;;2.20;;
76193;SDS011;64963;52.212;7.482;2022-12-31T18:47:14;6.72;;;2.10;;